sensor_id;sensor_type;location;lat;lon;timestamp;P1;durP1;ratioP1;P2;durP2;ratioP2
2187;SDS011;1100;52.014;8.540;2023-04-24T00:02:00;1.63;;;0.30;;
2187;SDS011;1100;52.014;8.540;2023-04-24T00:04:29;2.30;;;0.50;;
2187;SDS011;1100;52.014;8.540;2023-04-24T00:06:55;2.03;;;0.40;;
2187;SDS011;1100;52.014;8.540;2023-04-24T00:09:21;2.10;;;0.40;;
2187;SDS011;1100;52.014;8.540;2023-04-24T00:11:47;2.30;;;0.57;;
2187;SDS011;1100;52.014;8.540;2023-04-24T00:14:12;1.85;;;0.30;;
2187;SDS011;1100;52.014;8.540;2023-04-24T00:16:38;2.00;;;0.40;;
2187;SDS011;1100;52.014;8.540;2023-04-24T00:19:03;2.20;;;0.23;;
2187;SDS011;1100;52.014;8.540;2023-04-24T00:21:30;1.90;;;0.40;;
2187;SDS011;1100;52.014;8.540;2023-04-24T00:23:57;2.23;;;0.40;;
2187;SDS011;1100;52.014;8.540;2023-04-24T00:26:23;2.50;;;0.47;;
2187;SDS011;1100;52.014;8.540;2023-04-24T00:28:48;3.10;;;0.50;;
2187;SDS011;1100;52.014;8.540;2023-04-24T00:31:14;3.13;;;0.40;;
2187;SDS011;1100;52.014;8.540;2023-04-24T00:33:39;2.47;;;0.50;;
2187;SDS011;1100;52.014;8.540;2023-04-24T00:36:05;2.42;;;0.60;;
2187;SDS011;1100;52.014;8.540;2023-04-24T00:38:30;2.43;;;0.63;;
2187;SDS011;1100;52.014;8.540;2023-04-24T00:40:56;2.63;;;0.68;;
2187;SDS011;1100;52.014;8.540;2023-04-24T00:43:21;2.17;;;0.57;;
2187;SDS011;1100;52.014;8.540;2023-04-24T00:45:47;1.93;;;0.43;;
2187;SDS011;1100;52.014;8.540;2023-04-24T00:48:12;2.07;;;0.47;;
2187;SDS011;1100;52.014;8.540;2023-04-24T00:50:38;2.10;;;0.40;;
2187;SDS011;1100;52.014;8.540;2023-04-24T00:53:03;2.73;;;0.53;;
2187;SDS011;1100;52.014;8.540;2023-04-24T00:55:29;2.33;;;0.57;;
2187;SDS011;1100;52.014;8.540;2023-04-24T00:57:55;2.20;;;0.45;;
2187;SDS011;1100;52.014;8.540;2023-04-24T01:00:21;2.50;;;0.40;;
2187;SDS011;1100;52.014;8.540;2023-04-24T01:02:47;2.70;;;0.60;;
2187;SDS011;1100;52.014;8.540;2023-04-24T01:05:13;2.42;;;0.50;;
2187;SDS011;1100;52.014;8.540;2023-04-24T01:07:43;2.63;;;0.50;;
2187;SDS011;1100;52.014;8.540;2023-04-24T01:10:10;3.30;;;0.80;;
2187;SDS011;1100;52.014;8.540;2023-04-24T01:12:38;2.03;;;0.43;;
2187;SDS011;1100;52.014;8.540;2023-04-24T01:15:03;2.72;;;0.50;;
2187;SDS011;1100;52.014;8.540;2023-04-24T01:17:30;4.93;;;0.75;;
2187;SDS011;1100;52.014;8.540;2023-04-24T01:19:56;2.20;;;0.50;;
2187;SDS011;1100;52.014;8.540;2023-04-24T01:22:22;2.67;;;0.80;;
2187;SDS011;1100;52.014;8.540;2023-04-24T01:24:47;3.30;;;0.40;;
2187;SDS011;1100;52.014;8.540;2023-04-24T01:27:13;3.15;;;0.50;;
2187;SDS011;1100;52.014;8.540;2023-04-24T01:29:39;2.23;;;0.60;;
2187;SDS011;1100;52.014;8.540;2023-04-24T01:32:04;3.63;;;0.90;;
2187;SDS011;1100;52.014;8.540;2023-04-24T01:34:31;1.92;;;0.40;;
2187;SDS011;1100;52.014;8.540;2023-04-24T01:36:56;4.18;;;0.50;;
2187;SDS011;1100;52.014;8.540;2023-04-24T01:39:22;3.25;;;0.40;;
2187;SDS011;1100;52.014;8.540;2023-04-24T01:41:50;3.27;;;0.60;;
2187;SDS011;1100;52.014;8.540;2023-04-24T01:44:16;1.90;;;0.40;;
2187;SDS011;1100;52.014;8.540;2023-04-24T01:46:42;2.55;;;0.60;;
2187;SDS011;1100;52.014;8.540;2023-04-24T01:49:07;2.27;;;0.50;;
2187;SDS011;1100;52.014;8.540;2023-04-24T01:51:33;1.93;;;0.30;;
2187;SDS011;1100;52.014;8.540;2023-04-24T01:53:58;1.73;;;0.40;;
2187;SDS011;1100;52.014;8.540;2023-04-24T01:56:23;1.48;;;0.30;;
2187;SDS011;1100;52.014;8.540;2023-04-24T01:58:50;2.50;;;0.57;;
2187;SDS011;1100;52.014;8.540;2023-04-24T02:01:18;3.90;;;0.50;;
2187;SDS011;1100;52.014;8.540;2023-04-24T02:03:44;2.55;;;0.68;;
2187;SDS011;1100;52.014;8.540;2023-04-24T02:06:12;2.93;;;0.50;;
2187;SDS011;1100;52.014;8.540;2023-04-24T02:08:40;4.13;;;0.70;;
2187;SDS011;1100;52.014;8.540;2023-04-24T02:11:05;4.13;;;0.80;;
2187;SDS011;1100;52.014;8.540;2023-04-24T02:13:31;3.83;;;0.70;;
2187;SDS011;1100;52.014;8.540;2023-04-24T02:15:57;3.17;;;0.60;;
2187;SDS011;1100;52.014;8.540;2023-04-24T02:18:23;3.05;;;0.55;;
2187;SDS011;1100;52.014;8.540;2023-04-24T02:20:49;2.78;;;0.70;;
2187;SDS011;1100;52.014;8.540;2023-04-24T02:23:14;2.60;;;0.70;;
2187;SDS011;1100;52.014;8.540;2023-04-24T02:25:40;3.00;;;0.50;;
2187;SDS011;1100;52.014;8.540;2023-04-24T02:28:05;2.60;;;0.60;;
2187;SDS011;1100;52.014;8.540;2023-04-24T02:30:30;2.53;;;0.60;;
2187;SDS011;1100;52.014;8.540;2023-04-24T02:32:56;3.30;;;0.60;;
2187;SDS011;1100;52.014;8.540;2023-04-24T02:35:21;2.90;;;0.40;;
2187;SDS011;1100;52.014;8.540;2023-04-24T02:37:47;3.23;;;0.50;;
2187;SDS011;1100;52.014;8.540;2023-04-24T02:40:12;3.50;;;0.60;;
2187;SDS011;1100;52.014;8.540;2023-04-24T02:42:38;3.57;;;0.70;;
2187;SDS011;1100;52.014;8.540;2023-04-24T02:45:03;2.50;;;0.60;;
2187;SDS011;1100;52.014;8.540;2023-04-24T02:47:30;3.05;;;0.60;;
2187;SDS011;1100;52.014;8.540;2023-04-24T02:49:55;2.53;;;0.60;;
2187;SDS011;1100;52.014;8.540;2023-04-24T02:52:20;2.57;;;0.63;;
2187;SDS011;1100;52.014;8.540;2023-04-24T02:54:46;2.83;;;0.53;;
2187;SDS011;1100;52.014;8.540;2023-04-24T02:57:11;2.70;;;0.60;;
2187;SDS011;1100;52.014;8.540;2023-04-24T02:59:36;2.43;;;0.70;;
2187;SDS011;1100;52.014;8.540;2023-04-24T03:02:02;1.83;;;0.40;;
2187;SDS011;1100;52.014;8.540;2023-04-24T03:04:27;2.33;;;0.40;;
2187;SDS011;1100;52.014;8.540;2023-04-24T03:06:52;2.40;;;0.50;;
2187;SDS011;1100;52.014;8.540;2023-04-24T03:09:20;2.75;;;0.40;;
2187;SDS011;1100;52.014;8.540;2023-04-24T03:11:46;2.45;;;0.65;;
2187;SDS011;1100;52.014;8.540;2023-04-24T03:14:12;2.57;;;1.03;;
2187;SDS011;1100;52.014;8.540;2023-04-24T03:16:37;2.23;;;0.40;;
2187;SDS011;1100;52.014;8.540;2023-04-24T03:19:02;1.90;;;0.50;;
2187;SDS011;1100;52.014;8.540;2023-04-24T03:21:27;2.90;;;0.50;;
2187;SDS011;1100;52.014;8.540;2023-04-24T03:23:53;3.30;;;0.70;;
2187;SDS011;1100;52.014;8.540;2023-04-24T03:26:18;1.90;;;0.30;;
2187;SDS011;1100;52.014;8.540;2023-04-24T03:28:43;2.57;;;0.73;;
2187;SDS011;1100;52.014;8.540;2023-04-24T03:31:09;3.87;;;0.60;;
2187;SDS011;1100;52.014;8.540;2023-04-24T03:33:35;2.90;;;0.80;;
2187;SDS011;1100;52.014;8.540;2023-04-24T03:36:01;2.30;;;0.57;;
2187;SDS011;1100;52.014;8.540;2023-04-24T03:38:26;2.38;;;0.55;;
2187;SDS011;1100;52.014;8.540;2023-04-24T03:40:51;2.57;;;0.50;;
2187;SDS011;1100;52.014;8.540;2023-04-24T03:43:17;3.97;;;0.80;;
2187;SDS011;1100;52.014;8.540;2023-04-24T03:45:42;2.80;;;0.57;;
2187;SDS011;1100;52.014;8.540;2023-04-24T03:48:07;2.67;;;0.50;;
2187;SDS011;1100;52.014;8.540;2023-04-24T03:50:32;3.40;;;0.70;;
2187;SDS011;1100;52.014;8.540;2023-04-24T03:52:58;2.80;;;0.87;;
2187;SDS011;1100;52.014;8.540;2023-04-24T03:55:23;2.53;;;0.63;;
2187;SDS011;1100;52.014;8.540;2023-04-24T03:57:48;4.00;;;0.70;;
2187;SDS011;1100;52.014;8.540;2023-04-24T04:00:14;2.80;;;0.83;;
2187;SDS011;1100;52.014;8.540;2023-04-24T04:02:40;3.27;;;1.23;;
2187;SDS011;1100;52.014;8.540;2023-04-24T04:05:05;4.22;;;1.10;;
2187;SDS011;1100;52.014;8.540;2023-04-24T04:07:30;3.50;;;0.93;;
2187;SDS011;1100;52.014;8.540;2023-04-24T04:09:56;3.23;;;0.80;;
2187;SDS011;1100;52.014;8.540;2023-04-24T04:12:21;4.53;;;0.90;;
2187;SDS011;1100;52.014;8.540;2023-04-24T04:14:47;3.03;;;0.73;;
2187;SDS011;1100;52.014;8.540;2023-04-24T04:17:12;4.50;;;1.13;;
2187;SDS011;1100;52.014;8.540;2023-04-24T04:19:37;3.35;;;1.00;;
2187;SDS011;1100;52.014;8.540;2023-04-24T04:22:02;4.10;;;1.13;;
2187;SDS011;1100;52.014;8.540;2023-04-24T04:24:28;3.90;;;1.10;;
2187;SDS011;1100;52.014;8.540;2023-04-24T04:26:53;4.17;;;1.33;;
2187;SDS011;1100;52.014;8.540;2023-04-24T04:29:21;4.05;;;0.93;;
2187;SDS011;1100;52.014;8.540;2023-04-24T04:31:47;4.60;;;1.35;;
2187;SDS011;1100;52.014;8.540;2023-04-24T04:34:13;4.10;;;1.03;;
2187;SDS011;1100;52.014;8.540;2023-04-24T04:36:39;4.35;;;1.08;;
2187;SDS011;1100;52.014;8.540;2023-04-24T04:39:05;4.67;;;1.40;;
2187;SDS011;1100;52.014;8.540;2023-04-24T04:41:31;3.83;;;1.33;;
2187;SDS011;1100;52.014;8.540;2023-04-24T04:43:56;4.47;;;1.20;;
2187;SDS011;1100;52.014;8.540;2023-04-24T04:46:23;4.85;;;1.90;;
2187;SDS011;1100;52.014;8.540;2023-04-24T04:48:50;4.47;;;1.73;;
2187;SDS011;1100;52.014;8.540;2023-04-24T04:51:16;4.97;;;1.93;;
2187;SDS011;1100;52.014;8.540;2023-04-24T04:53:42;5.35;;;2.10;;
2187;SDS011;1100;52.014;8.540;2023-04-24T04:56:07;5.27;;;2.20;;
2187;SDS011;1100;52.014;8.540;2023-04-24T04:58:32;8.63;;;3.30;;
2187;SDS011;1100;52.014;8.540;2023-04-24T05:00:58;7.03;;;3.10;;
2187;SDS011;1100;52.014;8.540;2023-04-24T05:03:24;6.82;;;3.40;;
2187;SDS011;1100;52.014;8.540;2023-04-24T05:05:49;7.97;;;3.70;;
2187;SDS011;1100;52.014;8.540;2023-04-24T05:08:15;9.10;;;4.50;;
2187;SDS011;1100;52.014;8.540;2023-04-24T05:10:40;9.57;;;4.40;;
2187;SDS011;1100;52.014;8.540;2023-04-24T05:13:05;9.47;;;4.57;;
2187;SDS011;1100;52.014;8.540;2023-04-24T05:15:30;11.73;;;4.57;;
2187;SDS011;1100;52.014;8.540;2023-04-24T05:17:56;11.00;;;4.93;;
2187;SDS011;1100;52.014;8.540;2023-04-24T05:20:21;9.67;;;4.50;;
2187;SDS011;1100;52.014;8.540;2023-04-24T05:22:47;9.97;;;4.80;;
2187;SDS011;1100;52.014;8.540;2023-04-24T05:25:12;11.63;;;4.85;;
2187;SDS011;1100;52.014;8.540;2023-04-24T05:27:37;10.47;;;4.67;;
2187;SDS011;1100;52.014;8.540;2023-04-24T05:30:03;13.07;;;5.27;;
2187;SDS011;1100;52.014;8.540;2023-04-24T05:32:29;11.50;;;5.28;;
2187;SDS011;1100;52.014;8.540;2023-04-24T05:34:55;11.07;;;5.00;;
2187;SDS011;1100;52.014;8.540;2023-04-24T05:37:20;10.97;;;4.90;;
2187;SDS011;1100;52.014;8.540;2023-04-24T05:39:45;9.77;;;5.57;;
2187;SDS011;1100;52.014;8.540;2023-04-24T05:42:11;10.75;;;5.43;;
2187;SDS011;1100;52.014;8.540;2023-04-24T05:44:36;12.37;;;5.93;;
2187;SDS011;1100;52.014;8.540;2023-04-24T05:47:01;13.30;;;6.40;;
2187;SDS011;1100;52.014;8.540;2023-04-24T05:49:28;12.20;;;5.88;;
2187;SDS011;1100;52.014;8.540;2023-04-24T05:51:53;12.97;;;6.50;;
2187;SDS011;1100;52.014;8.540;2023-04-24T05:54:18;11.77;;;6.00;;
2187;SDS011;1100;52.014;8.540;2023-04-24T05:56:44;11.50;;;6.23;;
2187;SDS011;1100;52.014;8.540;2023-04-24T05:59:09;13.20;;;5.70;;
2187;SDS011;1100;52.014;8.540;2023-04-24T06:01:34;12.70;;;6.23;;
2187;SDS011;1100;52.014;8.540;2023-04-24T06:04:01;14.52;;;6.90;;
2187;SDS011;1100;52.014;8.540;2023-04-24T06:06:27;14.73;;;7.35;;
2187;SDS011;1100;52.014;8.540;2023-04-24T06:08:53;15.10;;;6.85;;
2187;SDS011;1100;52.014;8.540;2023-04-24T06:11:19;15.03;;;7.60;;
2187;SDS011;1100;52.014;8.540;2023-04-24T06:13:44;13.90;;;7.60;;
2187;SDS011;1100;52.014;8.540;2023-04-24T06:16:10;15.57;;;7.57;;
2187;SDS011;1100;52.014;8.540;2023-04-24T06:18:36;14.07;;;7.17;;
2187;SDS011;1100;52.014;8.540;2023-04-24T06:21:01;14.57;;;7.30;;
2187;SDS011;1100;52.014;8.540;2023-04-24T06:23:27;16.48;;;7.68;;
2187;SDS011;1100;52.014;8.540;2023-04-24T06:25:52;15.13;;;7.97;;
2187;SDS011;1100;52.014;8.540;2023-04-24T06:28:17;15.10;;;7.00;;
2187;SDS011;1100;52.014;8.540;2023-04-24T06:30:43;13.57;;;6.83;;
2187;SDS011;1100;52.014;8.540;2023-04-24T06:33:08;12.70;;;6.20;;
2187;SDS011;1100;52.014;8.540;2023-04-24T06:35:34;14.67;;;7.50;;
2187;SDS011;1100;52.014;8.540;2023-04-24T06:37:59;13.17;;;6.97;;
2187;SDS011;1100;52.014;8.540;2023-04-24T06:40:24;13.73;;;6.97;;
2187;SDS011;1100;52.014;8.540;2023-04-24T06:42:50;12.83;;;6.50;;
2187;SDS011;1100;52.014;8.540;2023-04-24T06:45:18;13.87;;;6.93;;
2187;SDS011;1100;52.014;8.540;2023-04-24T06:47:43;12.73;;;6.10;;
2187;SDS011;1100;52.014;8.540;2023-04-24T06:50:08;14.02;;;6.35;;
2187;SDS011;1100;52.014;8.540;2023-04-24T06:52:34;13.50;;;7.43;;
2187;SDS011;1100;52.014;8.540;2023-04-24T06:55:00;12.85;;;6.70;;
2187;SDS011;1100;52.014;8.540;2023-04-24T06:57:27;14.67;;;7.20;;
2187;SDS011;1100;52.014;8.540;2023-04-24T06:59:53;13.80;;;6.78;;
2187;SDS011;1100;52.014;8.540;2023-04-24T07:02:18;16.20;;;7.30;;
2187;SDS011;1100;52.014;8.540;2023-04-24T07:04:43;15.07;;;6.87;;
2187;SDS011;1100;52.014;8.540;2023-04-24T07:07:08;14.03;;;7.40;;
2187;SDS011;1100;52.014;8.540;2023-04-24T07:09:37;11.52;;;6.32;;
2187;SDS011;1100;52.014;8.540;2023-04-24T07:12:05;13.98;;;6.60;;
2187;SDS011;1100;52.014;8.540;2023-04-24T07:14:32;12.77;;;6.57;;
2187;SDS011;1100;52.014;8.540;2023-04-24T07:16:58;13.05;;;6.50;;
2187;SDS011;1100;52.014;8.540;2023-04-24T07:19:23;13.23;;;6.20;;
2187;SDS011;1100;52.014;8.540;2023-04-24T07:21:49;11.67;;;6.70;;
2187;SDS011;1100;52.014;8.540;2023-04-24T07:24:14;11.33;;;6.07;;
2187;SDS011;1100;52.014;8.540;2023-04-24T07:26:40;12.25;;;5.38;;
2187;SDS011;1100;52.014;8.540;2023-04-24T07:29:05;11.30;;;5.77;;
2187;SDS011;1100;52.014;8.540;2023-04-24T07:31:31;10.95;;;5.55;;
2187;SDS011;1100;52.014;8.540;2023-04-24T07:33:56;11.63;;;5.53;;
2187;SDS011;1100;52.014;8.540;2023-04-24T07:36:23;11.32;;;5.65;;
2187;SDS011;1100;52.014;8.540;2023-04-24T07:38:49;12.93;;;5.90;;
2187;SDS011;1100;52.014;8.540;2023-04-24T07:41:14;14.30;;;6.30;;
2187;SDS011;1100;52.014;8.540;2023-04-24T07:43:40;10.13;;;5.47;;
2187;SDS011;1100;52.014;8.540;2023-04-24T07:46:06;10.25;;;5.43;;
2187;SDS011;1100;52.014;8.540;2023-04-24T07:48:31;9.80;;;5.00;;
2187;SDS011;1100;52.014;8.540;2023-04-24T07:50:57;7.85;;;4.70;;
2187;SDS011;1100;52.014;8.540;2023-04-24T07:53:23;9.47;;;4.63;;
2187;SDS011;1100;52.014;8.540;2023-04-24T07:55:48;8.97;;;4.03;;
2187;SDS011;1100;52.014;8.540;2023-04-24T07:58:13;12.00;;;4.40;;
2187;SDS011;1100;52.014;8.540;2023-04-24T08:00:39;9.17;;;4.10;;
2187;SDS011;1100;52.014;8.540;2023-04-24T08:03:04;8.47;;;4.03;;
2187;SDS011;1100;52.014;8.540;2023-04-24T08:05:29;7.40;;;4.00;;
2187;SDS011;1100;52.014;8.540;2023-04-24T08:07:55;8.03;;;3.77;;
2187;SDS011;1100;52.014;8.540;2023-04-24T08:10:24;7.22;;;3.28;;
2187;SDS011;1100;52.014;8.540;2023-04-24T08:12:50;7.30;;;3.60;;
2187;SDS011;1100;52.014;8.540;2023-04-24T08:15:16;7.40;;;3.35;;
2187;SDS011;1100;52.014;8.540;2023-04-24T08:17:44;7.90;;;3.65;;
2187;SDS011;1100;52.014;8.540;2023-04-24T08:20:10;8.83;;;3.50;;
2187;SDS011;1100;52.014;8.540;2023-04-24T08:22:42;6.32;;;3.55;;
2187;SDS011;1100;52.014;8.540;2023-04-24T08:25:08;8.15;;;3.33;;
2187;SDS011;1100;52.014;8.540;2023-04-24T08:27:35;6.55;;;3.35;;
2187;SDS011;1100;52.014;8.540;2023-04-24T08:30:02;7.30;;;3.50;;
2187;SDS011;1100;52.014;8.540;2023-04-24T08:32:28;6.53;;;3.20;;
2187;SDS011;1100;52.014;8.540;2023-04-24T08:34:54;6.28;;;3.17;;
2187;SDS011;1100;52.014;8.540;2023-04-24T08:37:21;4.95;;;2.22;;
2187;SDS011;1100;52.014;8.540;2023-04-24T08:39:50;4.80;;;2.20;;
2187;SDS011;1100;52.014;8.540;2023-04-24T08:42:19;4.63;;;2.15;;
2187;SDS011;1100;52.014;8.540;2023-04-24T08:44:46;6.03;;;2.13;;
2187;SDS011;1100;52.014;8.540;2023-04-24T08:47:14;4.10;;;1.70;;
2187;SDS011;1100;52.014;8.540;2023-04-24T08:49:40;4.95;;;1.83;;
2187;SDS011;1100;52.014;8.540;2023-04-24T08:52:05;4.80;;;1.97;;
2187;SDS011;1100;52.014;8.540;2023-04-24T08:54:31;4.78;;;2.10;;
2187;SDS011;1100;52.014;8.540;2023-04-24T08:57:00;5.30;;;1.80;;
2187;SDS011;1100;52.014;8.540;2023-04-24T08:59:28;4.13;;;1.80;;
2187;SDS011;1100;52.014;8.540;2023-04-24T09:01:55;4.00;;;1.60;;
2187;SDS011;1100;52.014;8.540;2023-04-24T09:04:21;4.28;;;1.73;;
2187;SDS011;1100;52.014;8.540;2023-04-24T09:06:49;5.63;;;1.90;;
2187;SDS011;1100;52.014;8.540;2023-04-24T09:09:15;4.93;;;1.93;;
2187;SDS011;1100;52.014;8.540;2023-04-24T09:11:42;4.13;;;1.92;;
2187;SDS011;1100;52.014;8.540;2023-04-24T09:14:08;4.37;;;1.67;;
2187;SDS011;1100;52.014;8.540;2023-04-24T09:16:34;4.43;;;1.63;;
2187;SDS011;1100;52.014;8.540;2023-04-24T09:19:00;4.50;;;1.85;;
2187;SDS011;1100;52.014;8.540;2023-04-24T09:21:26;4.80;;;1.40;;
2187;SDS011;1100;52.014;8.540;2023-04-24T09:24:01;3.97;;;1.60;;
2187;SDS011;1100;52.014;8.540;2023-04-24T09:26:31;4.05;;;1.40;;
2187;SDS011;1100;52.014;8.540;2023-04-24T09:28:59;4.07;;;1.50;;
2187;SDS011;1100;52.014;8.540;2023-04-24T09:31:26;4.00;;;1.50;;
2187;SDS011;1100;52.014;8.540;2023-04-24T09:33:56;3.85;;;1.30;;
2187;SDS011;1100;52.014;8.540;2023-04-24T09:39:02;3.38;;;1.15;;
2187;SDS011;1100;52.014;8.540;2023-04-24T09:41:29;5.68;;;1.45;;
2187;SDS011;1100;52.014;8.540;2023-04-24T09:43:55;4.20;;;1.50;;
2187;SDS011;1100;52.014;8.540;2023-04-24T09:46:28;4.22;;;1.48;;
2187;SDS011;1100;52.014;8.540;2023-04-24T09:48:55;4.50;;;1.40;;
2187;SDS011;1100;52.014;8.540;2023-04-24T09:51:32;4.43;;;1.37;;
2187;SDS011;1100;52.014;8.540;2023-04-24T09:54:00;3.40;;;1.17;;
2187;SDS011;1100;52.014;8.540;2023-04-24T09:56:25;3.77;;;1.30;;
2187;SDS011;1100;52.014;8.540;2023-04-24T09:58:51;4.13;;;1.25;;
2187;SDS011;1100;52.014;8.540;2023-04-24T10:01:28;3.87;;;1.40;;
2187;SDS011;1100;52.014;8.540;2023-04-24T10:03:55;3.83;;;1.55;;
2187;SDS011;1100;52.014;8.540;2023-04-24T10:06:20;4.23;;;1.27;;
2187;SDS011;1100;52.014;8.540;2023-04-24T10:08:46;5.47;;;1.57;;
2187;SDS011;1100;52.014;8.540;2023-04-24T10:11:13;4.68;;;1.67;;
2187;SDS011;1100;52.014;8.540;2023-04-24T10:13:39;4.00;;;1.40;;
2187;SDS011;1100;52.014;8.540;2023-04-24T10:16:05;3.90;;;1.30;;
2187;SDS011;1100;52.014;8.540;2023-04-24T10:18:32;4.35;;;1.40;;
2187;SDS011;1100;52.014;8.540;2023-04-24T10:20:59;3.53;;;1.30;;
2187;SDS011;1100;52.014;8.540;2023-04-24T10:23:25;4.85;;;1.40;;
2187;SDS011;1100;52.014;8.540;2023-04-24T10:25:50;4.67;;;1.30;;
2187;SDS011;1100;52.014;8.540;2023-04-24T10:28:17;3.05;;;0.90;;
2187;SDS011;1100;52.014;8.540;2023-04-24T10:30:44;2.30;;;0.68;;
2187;SDS011;1100;52.014;8.540;2023-04-24T10:33:10;2.80;;;0.80;;
2187;SDS011;1100;52.014;8.540;2023-04-24T10:35:38;3.60;;;1.00;;
2187;SDS011;1100;52.014;8.540;2023-04-24T10:38:08;3.75;;;0.77;;
2187;SDS011;1100;52.014;8.540;2023-04-24T10:40:36;2.85;;;0.80;;
2187;SDS011;1100;52.014;8.540;2023-04-24T10:43:02;3.57;;;1.30;;
2187;SDS011;1100;52.014;8.540;2023-04-24T10:45:31;5.40;;;1.80;;
2187;SDS011;1100;52.014;8.540;2023-04-24T10:47:57;5.15;;;1.63;;
2187;SDS011;1100;52.014;8.540;2023-04-24T10:50:27;4.53;;;1.53;;
2187;SDS011;1100;52.014;8.540;2023-04-24T10:53:17;4.72;;;2.17;;
2187;SDS011;1100;52.014;8.540;2023-04-24T10:55:45;6.28;;;2.80;;
2187;SDS011;1100;52.014;8.540;2023-04-24T10:58:13;5.32;;;2.72;;
2187;SDS011;1100;52.014;8.540;2023-04-24T11:00:40;6.38;;;2.65;;
2187;SDS011;1100;52.014;8.540;2023-04-24T11:03:06;8.77;;;2.63;;
2187;SDS011;1100;52.014;8.540;2023-04-24T11:05:51;6.18;;;2.60;;
2187;SDS011;1100;52.014;8.540;2023-04-24T11:08:25;6.30;;;2.80;;
2187;SDS011;1100;52.014;8.540;2023-04-24T11:10:59;5.57;;;2.70;;
2187;SDS011;1100;52.014;8.540;2023-04-24T11:13:27;5.65;;;2.95;;
2187;SDS011;1100;52.014;8.540;2023-04-24T11:16:27;6.20;;;2.50;;
2187;SDS011;1100;52.014;8.540;2023-04-24T11:19:03;5.25;;;2.63;;
2187;SDS011;1100;52.014;8.540;2023-04-24T11:21:32;6.93;;;3.03;;
2187;SDS011;1100;52.014;8.540;2023-04-24T11:26:51;6.25;;;2.60;;
2187;SDS011;1100;52.014;8.540;2023-04-24T11:29:40;5.83;;;2.57;;
2187;SDS011;1100;52.014;8.540;2023-04-24T11:35:01;5.07;;;2.00;;
2187;SDS011;1100;52.014;8.540;2023-04-24T11:37:35;5.30;;;1.70;;
2187;SDS011;1100;52.014;8.540;2023-04-24T11:40:02;4.32;;;1.70;;
2187;SDS011;1100;52.014;8.540;2023-04-24T11:42:39;4.73;;;1.63;;
2187;SDS011;1100;52.014;8.540;2023-04-24T11:45:13;4.05;;;1.20;;
2187;SDS011;1100;52.014;8.540;2023-04-24T11:47:41;4.00;;;1.00;;
2187;SDS011;1100;52.014;8.540;2023-04-24T11:50:08;3.80;;;1.02;;
2187;SDS011;1100;52.014;8.540;2023-04-24T11:52:38;4.00;;;0.98;;
2187;SDS011;1100;52.014;8.540;2023-04-24T11:57:42;3.70;;;0.90;;
2187;SDS011;1100;52.014;8.540;2023-04-24T12:00:14;3.28;;;0.90;;
2187;SDS011;1100;52.014;8.540;2023-04-24T12:02:44;5.32;;;1.10;;
2187;SDS011;1100;52.014;8.540;2023-04-24T12:05:18;4.25;;;1.40;;
2187;SDS011;1100;52.014;8.540;2023-04-24T12:07:44;4.90;;;1.43;;
2187;SDS011;1100;52.014;8.540;2023-04-24T12:10:09;5.35;;;2.10;;
2187;SDS011;1100;52.014;8.540;2023-04-24T12:12:35;5.83;;;2.40;;
2187;SDS011;1100;52.014;8.540;2023-04-24T12:15:00;5.73;;;2.60;;
2187;SDS011;1100;52.014;8.540;2023-04-24T12:17:32;7.03;;;2.22;;
2187;SDS011;1100;52.014;8.540;2023-04-24T12:19:59;6.15;;;2.75;;
2187;SDS011;1100;52.014;8.540;2023-04-24T12:22:26;5.87;;;2.00;;
2187;SDS011;1100;52.014;8.540;2023-04-24T12:25:01;5.35;;;2.20;;
2187;SDS011;1100;52.014;8.540;2023-04-24T12:27:29;7.80;;;1.90;;
2187;SDS011;1100;52.014;8.540;2023-04-24T12:29:57;7.10;;;2.00;;
2187;SDS011;1100;52.014;8.540;2023-04-24T12:32:23;6.60;;;2.13;;
2187;SDS011;1100;52.014;8.540;2023-04-24T12:34:50;5.72;;;2.00;;
2187;SDS011;1100;52.014;8.540;2023-04-24T12:37:16;5.78;;;2.00;;
2187;SDS011;1100;52.014;8.540;2023-04-24T12:42:50;9.82;;;3.00;;
2187;SDS011;1100;52.014;8.540;2023-04-24T12:45:17;9.43;;;3.65;;
2187;SDS011;1100;52.014;8.540;2023-04-24T12:47:44;6.65;;;2.85;;
2187;SDS011;1100;52.014;8.540;2023-04-24T12:50:11;7.73;;;3.07;;
2187;SDS011;1100;52.014;8.540;2023-04-24T12:52:38;8.85;;;3.13;;
2187;SDS011;1100;52.014;8.540;2023-04-24T12:55:04;9.07;;;3.35;;
2187;SDS011;1100;52.014;8.540;2023-04-24T12:57:32;7.88;;;3.33;;
2187;SDS011;1100;52.014;8.540;2023-04-24T12:59:58;9.03;;;3.50;;
2187;SDS011;1100;52.014;8.540;2023-04-24T13:02:24;10.30;;;3.80;;
2187;SDS011;1100;52.014;8.540;2023-04-24T13:04:51;11.80;;;3.80;;
2187;SDS011;1100;52.014;8.540;2023-04-24T13:07:16;8.85;;;3.22;;
2187;SDS011;1100;52.014;8.540;2023-04-24T13:09:42;6.90;;;3.00;;
2187;SDS011;1100;52.014;8.540;2023-04-24T13:12:09;14.48;;;3.58;;
2187;SDS011;1100;52.014;8.540;2023-04-24T13:14:35;9.88;;;3.63;;
2187;SDS011;1100;52.014;8.540;2023-04-24T13:17:01;7.32;;;3.33;;
2187;SDS011;1100;52.014;8.540;2023-04-24T13:19:27;8.93;;;3.20;;
2187;SDS011;1100;52.014;8.540;2023-04-24T13:21:54;7.23;;;2.90;;
2187;SDS011;1100;52.014;8.540;2023-04-24T13:24:21;6.93;;;2.80;;
2187;SDS011;1100;52.014;8.540;2023-04-24T13:26:51;8.75;;;3.05;;
2187;SDS011;1100;52.014;8.540;2023-04-24T13:29:17;7.90;;;2.58;;
2187;SDS011;1100;52.014;8.540;2023-04-24T13:31:43;7.20;;;3.03;;
2187;SDS011;1100;52.014;8.540;2023-04-24T13:34:09;7.43;;;2.90;;
2187;SDS011;1100;52.014;8.540;2023-04-24T13:36:34;6.80;;;3.23;;
2187;SDS011;1100;52.014;8.540;2023-04-24T13:39:00;12.33;;;4.20;;
2187;SDS011;1100;52.014;8.540;2023-04-24T13:41:26;10.50;;;3.90;;
2187;SDS011;1100;52.014;8.540;2023-04-24T13:43:51;10.53;;;4.03;;
2187;SDS011;1100;52.014;8.540;2023-04-24T13:46:16;11.67;;;4.33;;
2187;SDS011;1100;52.014;8.540;2023-04-24T13:48:42;10.50;;;3.83;;
2187;SDS011;1100;52.014;8.540;2023-04-24T13:51:07;12.35;;;3.92;;
2187;SDS011;1100;52.014;8.540;2023-04-24T13:53:32;13.13;;;4.27;;
2187;SDS011;1100;52.014;8.540;2023-04-24T13:56:01;10.05;;;4.10;;
2187;SDS011;1100;52.014;8.540;2023-04-24T13:58:27;12.30;;;4.43;;
2187;SDS011;1100;52.014;8.540;2023-04-24T14:00:52;12.93;;;4.32;;
2187;SDS011;1100;52.014;8.540;2023-04-24T14:03:18;14.20;;;5.03;;
2187;SDS011;1100;52.014;8.540;2023-04-24T14:05:43;11.67;;;4.83;;
2187;SDS011;1100;52.014;8.540;2023-04-24T14:08:08;9.93;;;4.77;;
2187;SDS011;1100;52.014;8.540;2023-04-24T14:10:33;12.53;;;5.23;;
2187;SDS011;1100;52.014;8.540;2023-04-24T14:12:59;14.70;;;4.67;;
2187;SDS011;1100;52.014;8.540;2023-04-24T14:15:24;12.87;;;4.73;;
2187;SDS011;1100;52.014;8.540;2023-04-24T14:17:49;13.43;;;4.93;;
2187;SDS011;1100;52.014;8.540;2023-04-24T14:20:15;10.93;;;4.40;;
2187;SDS011;1100;52.014;8.540;2023-04-24T14:22:40;12.10;;;4.10;;
2187;SDS011;1100;52.014;8.540;2023-04-24T14:25:06;11.57;;;4.23;;
2187;SDS011;1100;52.014;8.540;2023-04-24T14:27:31;14.82;;;4.18;;
2187;SDS011;1100;52.014;8.540;2023-04-24T14:29:57;11.60;;;4.07;;
2187;SDS011;1100;52.014;8.540;2023-04-24T14:32:22;12.23;;;4.00;;
2187;SDS011;1100;52.014;8.540;2023-04-24T14:34:47;10.03;;;3.60;;
2187;SDS011;1100;52.014;8.540;2023-04-24T14:37:13;10.70;;;3.60;;
2187;SDS011;1100;52.014;8.540;2023-04-24T14:39:38;9.95;;;3.40;;
2187;SDS011;1100;52.014;8.540;2023-04-24T14:42:03;10.97;;;3.80;;
2187;SDS011;1100;52.014;8.540;2023-04-24T14:44:29;7.50;;;3.10;;
2187;SDS011;1100;52.014;8.540;2023-04-24T14:46:54;10.23;;;3.23;;
2187;SDS011;1100;52.014;8.540;2023-04-24T14:49:20;9.20;;;3.50;;
2187;SDS011;1100;52.014;8.540;2023-04-24T14:51:45;9.93;;;3.30;;
2187;SDS011;1100;52.014;8.540;2023-04-24T14:54:10;11.55;;;4.00;;
2187;SDS011;1100;52.014;8.540;2023-04-24T14:56:36;7.40;;;3.47;;
2187;SDS011;1100;52.014;8.540;2023-04-24T14:59:01;8.47;;;2.80;;
2187;SDS011;1100;52.014;8.540;2023-04-24T15:01:27;8.48;;;2.90;;
2187;SDS011;1100;52.014;8.540;2023-04-24T15:03:53;10.17;;;2.80;;
2187;SDS011;1100;52.014;8.540;2023-04-24T15:06:18;8.60;;;2.57;;
2187;SDS011;1100;52.014;8.540;2023-04-24T15:08:45;7.72;;;2.92;;
2187;SDS011;1100;52.014;8.540;2023-04-24T15:11:10;7.33;;;2.73;;
2187;SDS011;1100;52.014;8.540;2023-04-24T15:13:36;8.13;;;2.60;;
2187;SDS011;1100;52.014;8.540;2023-04-24T15:16:01;6.77;;;2.40;;
2187;SDS011;1100;52.014;8.540;2023-04-24T15:18:27;9.00;;;2.70;;
2187;SDS011;1100;52.014;8.540;2023-04-24T15:20:54;9.67;;;3.00;;
2187;SDS011;1100;52.014;8.540;2023-04-24T15:23:19;7.25;;;2.53;;